Time;durP1;ratioP1;P1;durP2;ratioP2;P2;SDS_P1;SDS_P2;PMS_P1;PMS_P2;Temp;Humidity;BMP_temperature;BMP_pressure;BME280_temperature;BME280_humidity;BME280_pressure;Samples;Min_cycle;Max_cycle;Signal;HPM_P1;HPM_P2
2023/04/20 00:00:09;;;;;;;0.90;0.90;;;8.00;99.90;;;;;;5095527;28;20176;-79
2023/04/20 00:02:37;;;;;;;0.80;0.80;;;8.00;99.90;;;;;;5096446;28;20327;-85
2023/04/20 00:05:04;;;;;;;0.80;0.80;;;8.00;99.90;;;;;;5097164;28;20179;-80
2023/04/20 00:07:30;;;;;;;0.80;0.80;;;8.00;99.90;;;;;;5095859;28;20172;-82
2023/04/20 00:09:56;;;;;;;0.90;0.90;;;8.00;99.90;;;;;;5095870;28;20660;-86
2023/04/20 00:12:22;;;;;;;0.90;0.90;;;8.00;99.90;;;;;;5095398;28;20177;-80
2023/04/20 00:14:47;;;;;;;0.80;0.80;;;8.00;99.90;;;;;;5095607;28;20172;-81
2023/04/20 00:17:13;;;;;;;1.03;0.93;;;8.00;99.90;;;;;;5095493;28;20188;-80
2023/04/20 00:19:39;;;;;;;1.30;0.90;;;8.10;99.90;;;;;;5093948;28;20176;-80
2023/04/20 00:22:05;;;;;;;0.80;0.80;;;8.20;99.90;;;;;;5095054;28;20206;-82
2023/04/20 00:24:31;;;;;;;0.77;0.77;;;8.20;99.90;;;;;;5095421;28;20177;-84
2023/04/20 00:26:57;;;;;;;0.93;0.93;;;8.20;99.90;;;;;;5095955;28;20181;-80
2023/04/20 00:29:22;;;;;;;1.40;0.80;;;8.30;99.90;;;;;;5095818;28;20176;-76
2023/04/20 00:31:51;;;;;;;1.80;0.80;;;8.20;99.90;;;;;;5095198;28;20657;-80
2023/04/20 00:34:21;;;;;;;0.80;0.80;;;8.20;99.90;;;;;;5094958;28;20229;-80
2023/04/20 00:36:47;;;;;;;0.80;0.80;;;8.20;99.90;;;;;;5094761;28;20209;-78
2023/04/20 00:39:13;;;;;;;0.97;0.97;;;8.20;99.90;;;;;;5094872;28;20173;-76
2023/04/20 00:41:39;;;;;;;0.57;0.57;;;8.20;99.90;;;;;;5094484;28;20201;-80
2023/04/20 00:44:12;;;;;;;0.90;0.90;;;8.20;99.90;;;;;;5093005;28;20188;-76
2023/04/20 00:46:38;;;;;;;0.77;0.77;;;8.20;99.90;;;;;;5094125;28;20169;-79
2023/04/20 00:49:05;;;;;;;0.77;0.77;;;8.20;99.90;;;;;;5094542;28;20170;-76
2023/04/20 00:51:31;;;;;;;0.93;0.90;;;8.10;99.90;;;;;;5094868;28;20519;-76
2023/04/20 00:53:58;;;;;;;1.10;1.00;;;8.20;99.90;;;;;;5093686;28;20174;-78
2023/04/20 00:56:23;;;;;;;0.93;0.93;;;8.30;99.90;;;;;;5093617;28;20182;-77
2023/04/20 00:58:49;;;;;;;1.07;1.07;;;8.30;99.90;;;;;;5094039;28;20227;-75
2023/04/20 01:01:18;;;;;;;1.00;1.00;;;8.30;99.90;;;;;;5094081;28;20653;-80
2023/04/20 01:03:44;;;;;;;1.13;1.00;;;8.20;99.90;;;;;;5098420;28;20177;-76
2023/04/20 01:06:12;;;;;;;0.70;0.70;;;8.20;99.90;;;;;;5097861;28;20169;-80
2023/04/20 01:08:49;;;;;;;0.90;0.80;;;8.20;99.90;;;;;;5098173;28;20185;-78
2023/04/20 01:11:14;;;;;;;0.90;0.90;;;8.30;99.90;;;;;;5095073;28;20219;-79
2023/04/20 01:13:40;;;;;;;1.07;1.00;;;8.10;99.90;;;;;;5094841;28;20561;-76
2023/04/20 01:16:06;;;;;;;1.10;1.10;;;8.10;99.90;;;;;;5104352;28;20201;-79
2023/04/20 01:18:47;;;;;;;0.70;0.70;;;8.10;99.90;;;;;;5095976;28;20181;-76
2023/04/20 01:21:15;;;;;;;0.93;0.93;;;8.00;99.90;;;;;;5094140;28;20216;-77
2023/04/20 01:23:41;;;;;;;1.03;1.03;;;7.90;99.90;;;;;;5094241;28;20189;-75
2023/04/20 01:26:09;;;;;;;0.90;0.90;;;8.00;99.90;;;;;;5093058;28;20171;-75
2023/04/20 01:28:34;;;;;;;0.90;0.90;;;8.00;99.90;;;;;;5093592;28;20186;-75
2023/04/20 01:31:02;;;;;;;0.90;0.90;;;7.90;99.90;;;;;;5094516;28;20168;-81
2023/04/20 01:33:28;;;;;;;0.93;0.93;;;8.00;99.90;;;;;;5095138;28;20281;-77
2023/04/20 01:35:54;;;;;;;0.80;0.80;;;8.00;99.90;;;;;;5100400;28;20209;-80
2023/04/20 01:38:21;;;;;;;0.83;0.83;;;8.00;99.90;;;;;;5100943;28;20540;-82
2023/04/20 01:40:47;;;;;;;0.77;0.77;;;7.90;99.90;;;;;;5097176;28;20173;-77
2023/04/20 01:43:13;;;;;;;0.87;0.87;;;7.80;99.90;;;;;;5094097;28;20218;-86
2023/04/20 01:45:39;;;;;;;0.90;0.90;;;7.70;99.90;;;;;;5093405;28;20303;-77
2023/04/20 01:48:05;;;;;;;1.00;1.00;;;7.70;99.90;;;;;;5093847;28;20651;-85
2023/04/20 01:50:30;;;;;;;2.23;1.10;;;7.70;99.90;;;;;;5093878;28;20168;-82
2023/04/20 01:52:56;;;;;;;0.70;0.70;;;7.70;99.90;;;;;;5093570;28;20177;-82
2023/04/20 01:55:22;;;;;;;0.80;0.80;;;7.70;99.90;;;;;;5092698;28;20234;-77
2023/04/20 01:57:47;;;;;;;1.00;1.00;;;7.70;99.90;;;;;;5092999;28;20174;-77
2023/04/20 02:00:15;;;;;;;0.80;0.80;;;7.60;99.90;;;;;;5093321;28;20164;-86
2023/04/20 02:02:41;;;;;;;2.10;0.90;;;7.50;99.90;;;;;;5093089;28;20204;-85
2023/04/20 02:05:09;;;;;;;0.80;0.80;;;7.50;99.90;;;;;;5092922;28;20166;-82
2023/04/20 02:07:35;;;;;;;1.10;1.10;;;7.50;99.90;;;;;;5093466;28;20531;-84
2023/04/20 02:10:02;;;;;;;0.93;0.93;;;7.50;99.90;;;;;;5093614;28;20169;-83
2023/04/20 02:12:28;;;;;;;0.87;0.87;;;7.40;99.90;;;;;;5093717;28;20229;-81
2023/04/20 02:14:53;;;;;;;1.07;1.07;;;7.40;99.90;;;;;;5093004;28;20176;-83
2023/04/20 02:17:19;;;;;;;1.00;1.00;;;7.40;99.90;;;;;;5100489;28;20237;-76
2023/04/20 02:19:45;;;;;;;0.90;0.90;;;7.40;99.90;;;;;;5094592;28;20260;-80
2023/04/20 02:22:11;;;;;;;0.93;0.93;;;7.50;99.90;;;;;;5094020;28;20204;-77
2023/04/20 02:24:37;;;;;;;0.90;0.90;;;7.50;99.90;;;;;;5093463;28;20649;-76
2023/04/20 02:27:03;;;;;;;2.53;0.80;;;7.50;99.90;;;;;;5093335;28;20191;-87
2023/04/20 02:29:32;;;;;;;1.13;1.13;;;7.60;99.90;;;;;;5095742;28;20177;-80
2023/04/20 02:31:57;;;;;;;0.87;0.87;;;7.70;99.90;;;;;;5094969;28;20599;-75
2023/04/20 02:34:23;;;;;;;0.63;0.63;;;7.70;99.90;;;;;;5092467;28;20171;-77
2023/04/20 02:36:49;;;;;;;1.13;1.13;;;7.70;99.90;;;;;;5097075;28;20200;-79
2023/04/20 02:39:15;;;;;;;1.03;1.03;;;7.70;99.90;;;;;;5099005;28;20181;-80
2023/04/20 02:41:40;;;;;;;1.10;1.10;;;7.60;99.90;;;;;;5093626;28;20216;-75
2023/04/20 02:44:06;;;;;;;1.10;1.10;;;7.60;99.90;;;;;;5094106;28;20528;-79
2023/04/20 02:46:32;;;;;;;1.00;1.00;;;7.60;99.90;;;;;;5091444;28;20188;-81
2023/04/20 02:48:57;;;;;;;1.00;1.00;;;7.70;99.90;;;;;;5108439;28;20238;-76
2023/04/20 02:51:23;;;;;;;0.73;0.73;;;7.80;99.90;;;;;;5096781;28;20185;-83
2023/04/20 02:53:49;;;;;;;1.10;1.10;;;7.80;99.90;;;;;;5091193;28;20177;-78
2023/04/20 02:56:15;;;;;;;0.93;0.93;;;7.70;99.90;;;;;;5091885;28;20173;-77
2023/04/20 02:58:40;;;;;;;0.77;0.77;;;7.80;99.90;;;;;;5092389;28;20225;-79
2023/04/20 03:01:11;;;;;;;0.90;0.90;;;7.80;99.90;;;;;;5090907;28;20235;-77
2023/04/20 03:03:37;;;;;;;0.97;0.97;;;7.80;99.90;;;;;;5092561;28;20221;-77
2023/04/20 03:06:05;;;;;;;1.00;1.00;;;7.90;99.90;;;;;;5091684;28;20200;-80
2023/04/20 03:08:31;;;;;;;1.20;1.10;;;7.90;99.90;;;;;;5091882;28;20177;-77
2023/04/20 03:10:57;;;;;;;0.90;0.90;;;7.90;99.90;;;;;;5090153;28;20249;-78
2023/04/20 03:13:23;;;;;;;0.80;0.80;;;7.90;99.90;;;;;;5091838;28;20216;-76
2023/04/20 03:15:48;;;;;;;1.13;1.13;;;7.80;99.90;;;;;;5090762;28;20184;-84
2023/04/20 03:18:14;;;;;;;1.30;1.30;;;7.80;99.90;;;;;;5100118;28;20191;-75
2023/04/20 03:20:40;;;;;;;1.07;1.07;;;7.70;99.90;;;;;;5105752;28;20204;-78
2023/04/20 03:23:06;;;;;;;1.07;1.07;;;7.80;99.90;;;;;;5116577;28;20290;-80
2023/04/20 03:25:32;;;;;;;1.10;1.10;;;7.70;99.90;;;;;;5101610;28;20185;-78
2023/04/20 03:27:58;;;;;;;0.90;0.90;;;7.80;99.90;;;;;;5096025;28;20592;-87
2023/04/20 03:30:24;;;;;;;1.20;1.20;;;7.70;99.90;;;;;;5097157;28;20169;-81
2023/04/20 03:32:50;;;;;;;1.33;1.33;;;7.70;99.90;;;;;;5101712;28;20255;-77
2023/04/20 03:35:16;;;;;;;1.60;1.53;;;7.70;99.90;;;;;;5104312;28;20696;-78
2023/04/20 03:37:42;;;;;;;1.40;1.40;;;7.80;99.90;;;;;;5078817;28;20192;-84
2023/04/20 03:40:09;;;;;;;1.43;1.43;;;7.80;99.90;;;;;;5077810;28;20582;-81
2023/04/20 03:42:36;;;;;;;1.40;1.30;;;7.90;99.90;;;;;;5076238;28;20217;-85
2023/04/20 03:45:02;;;;;;;1.27;1.27;;;7.90;99.90;;;;;;5077386;28;20174;-83
2023/04/20 03:47:28;;;;;;;1.17;1.17;;;7.80;99.90;;;;;;5078223;28;20285;-85
2023/04/20 03:49:53;;;;;;;1.40;1.40;;;7.80;99.90;;;;;;5078079;28;20261;-81
2023/04/20 03:52:19;;;;;;;1.63;1.53;;;7.80;99.90;;;;;;5076085;28;20200;-81
2023/04/20 03:54:45;;;;;;;1.30;1.30;;;7.70;99.90;;;;;;5077672;28;20177;-83
2023/04/20 03:57:11;;;;;;;1.40;1.40;;;7.70;99.90;;;;;;5077718;28;20659;-84
2023/04/20 03:59:37;;;;;;;1.40;1.40;;;7.70;99.90;;;;;;5075882;28;20227;-85
2023/04/20 04:02:04;;;;;;;1.93;1.73;;;7.70;99.90;;;;;;5078653;28;20277;-80
2023/04/20 04:04:30;;;;;;;4.60;1.30;;;7.70;99.90;;;;;;5082673;28;20201;-86
2023/04/20 04:06:56;;;;;;;1.37;1.30;;;7.70;99.90;;;;;;5075059;28;20175;-81
2023/04/20 04:09:25;;;;;;;2.00;1.90;;;7.70;99.90;;;;;;5077266;28;20254;-84
2023/04/20 04:11:51;;;;;;;1.67;1.57;;;7.70;99.90;;;;;;5076980;28;20192;-80
2023/04/20 04:14:16;;;;;;;1.40;1.40;;;7.70;99.90;;;;;;5078340;28;20178;-80
2023/04/20 04:16:42;;;;;;;1.70;1.60;;;7.70;99.90;;;;;;5075946;28;20221;-82
2023/04/20 04:19:08;;;;;;;3.87;1.50;;;7.60;99.90;;;;;;5077205;28;20523;-84
2023/04/20 04:21:34;;;;;;;1.40;1.30;;;7.70;99.90;;;;;;5081644;28;20201;-78
2023/04/20 04:23:59;;;;;;;1.63;1.53;;;7.80;99.90;;;;;;5079402;28;20186;-82
2023/04/20 04:26:25;;;;;;;1.43;1.43;;;7.90;99.90;;;;;;5076599;28;20246;-82
2023/04/20 04:28:51;;;;;;;1.70;1.60;;;7.90;99.90;;;;;;5076098;28;20263;-81
2023/04/20 04:31:18;;;;;;;1.60;1.50;;;8.00;99.90;;;;;;5076230;28;20242;-78
2023/04/20 04:33:47;;;;;;;1.63;1.43;;;7.90;99.90;;;;;;5076539;28;20200;-85
2023/04/20 04:36:14;;;;;;;1.40;1.40;;;7.90;99.90;;;;;;5075804;28;20179;-80
2023/04/20 04:38:43;;;;;;;2.07;1.97;;;7.90;99.90;;;;;;5075541;28;20262;-76
2023/04/20 04:41:12;;;;;;;2.00;1.90;;;7.90;99.90;;;;;;5075222;28;20189;-79
2023/04/20 04:43:39;;;;;;;1.40;1.40;;;7.90;99.90;;;;;;5075051;28;20634;-87
2023/04/20 04:46:09;;;;;;;1.70;1.60;;;7.90;99.90;;;;;;5074160;28;20179;-81
2023/04/20 04:48:36;;;;;;;3.77;1.83;;;7.90;99.90;;;;;;5075694;28;20284;-89
2023/04/20 04:51:02;;;;;;;2.23;2.03;;;7.90;99.90;;;;;;5075738;28;20583;-84
2023/04/20 04:53:28;;;;;;;1.60;1.60;;;7.90;99.90;;;;;;5081247;28;20178;-84
2023/04/20 04:55:53;;;;;;;1.80;1.70;;;7.90;99.90;;;;;;5080484;28;20190;-85
2023/04/20 04:58:19;;;;;;;1.90;1.70;;;8.00;99.90;;;;;;5094781;28;20307;-78
2023/04/20 05:00:45;;;;;;;1.80;1.70;;;8.10;99.90;;;;;;5097979;28;20171;-80
2023/04/20 05:03:10;;;;;;;1.83;1.77;;;8.10;99.90;;;;;;5094447;28;20214;-76
2023/04/20 05:05:39;;;;;;;2.17;1.70;;;8.10;99.90;;;;;;5094638;28;20221;-84
2023/04/20 05:08:08;;;;;;;1.70;1.60;;;8.20;99.90;;;;;;5095563;28;20178;-82
2023/04/20 05:10:34;;;;;;;1.70;1.67;;;8.30;99.90;;;;;;5095106;28;20198;-81
2023/04/20 05:13:03;;;;;;;1.70;1.60;;;8.30;99.90;;;;;;5094314;28;20181;-81
2023/04/20 05:15:29;;;;;;;2.07;1.97;;;8.30;99.90;;;;;;5093500;28;20174;-81
2023/04/20 05:17:55;;;;;;;1.90;1.80;;;8.50;99.90;;;;;;5094562;28;20318;-83
2023/04/20 05:20:21;;;;;;;1.83;1.70;;;8.50;99.90;;;;;;5094486;28;20170;-81
2023/04/20 05:22:46;;;;;;;1.70;1.70;;;8.50;99.90;;;;;;5095027;28;20208;-83
2023/04/20 05:25:12;;;;;;;1.60;1.57;;;8.50;99.90;;;;;;5096415;28;20178;-86
2023/04/20 05:27:38;;;;;;;3.90;2.10;;;8.60;99.90;;;;;;5095114;28;20170;-83
2023/04/20 05:30:05;;;;;;;1.90;1.80;;;8.70;99.90;;;;;;5094285;28;20223;-82
2023/04/20 05:32:31;;;;;;;1.90;1.80;;;8.90;99.90;;;;;;5093602;28;20177;-84
2023/04/20 05:34:57;;;;;;;1.73;1.70;;;8.70;99.90;;;;;;5097875;28;20245;-84
2023/04/20 05:37:23;;;;;;;1.70;1.60;;;8.80;99.90;;;;;;5097203;28;20218;-85
2023/04/20 05:39:48;;;;;;;2.10;2.00;;;8.80;99.90;;;;;;5097464;28;20172;-81
2023/04/20 05:42:14;;;;;;;2.00;1.90;;;8.90;99.90;;;;;;5094095;28;20228;-77
2023/04/20 05:44:42;;;;;;;1.83;1.73;;;8.90;99.90;;;;;;5102059;28;20212;-79
2023/04/20 05:47:08;;;;;;;1.90;1.80;;;8.80;99.90;;;;;;5095732;28;20245;-78
2023/04/20 05:49:34;;;;;;;2.57;1.90;;;8.80;99.90;;;;;;5099272;28;20262;-80
2023/04/20 05:52:00;;;;;;;2.10;2.00;;;8.90;99.90;;;;;;5097616;28;20184;-77
2023/04/20 05:54:29;;;;;;;2.00;1.77;;;8.90;99.90;;;;;;5099128;28;20269;-76
2023/04/20 05:56:57;;;;;;;1.53;1.53;;;9.00;99.90;;;;;;5101591;28;20177;-81
2023/04/20 05:59:24;;;;;;;2.20;2.00;;;9.00;99.90;;;;;;5094506;28;20245;-82
2023/04/20 06:01:50;;;;;;;2.20;2.10;;;9.10;99.90;;;;;;5093105;28;20249;-79
2023/04/20 06:04:16;;;;;;;2.07;1.93;;;9.30;99.90;;;;;;5092562;28;20221;-81
2023/04/20 06:06:41;;;;;;;2.10;2.00;;;9.40;99.90;;;;;;5091996;28;20186;-80
2023/04/20 06:09:07;;;;;;;1.70;1.60;;;9.60;99.90;;;;;;5093481;28;20578;-82
2023/04/20 06:11:33;;;;;;;1.80;1.70;;;9.60;99.90;;;;;;5095091;28;20275;-79
2023/04/20 06:13:59;;;;;;;1.60;1.60;;;9.60;99.90;;;;;;5094540;28;20174;-75
2023/04/20 06:16:25;;;;;;;2.30;2.20;;;9.60;99.90;;;;;;5094378;28;20170;-77
2023/04/20 06:18:50;;;;;;;1.53;1.50;;;9.60;99.90;;;;;;5093417;28;20175;-81
2023/04/20 06:21:16;;;;;;;1.73;1.67;;;9.80;99.90;;;;;;5092932;28;20179;-76
2023/04/20 06:23:43;;;;;;;2.33;2.07;;;9.90;99.90;;;;;;5092982;28;20190;-76
2023/04/20 06:26:09;;;;;;;2.10;2.00;;;9.90;99.90;;;;;;5094776;28;20258;-79
2023/04/20 06:28:38;;;;;;;2.43;2.20;;;9.70;99.90;;;;;;5092380;28;20255;-77
2023/04/20 06:31:05;;;;;;;2.30;2.20;;;9.70;99.90;;;;;;5093979;28;20219;-76
2023/04/20 06:33:30;;;;;;;3.73;3.43;;;9.80;99.90;;;;;;5093631;28;20170;-76
2023/04/20 06:35:57;;;;;;;2.43;2.33;;;9.90;99.90;;;;;;5092502;28;20178;-75
2023/04/20 06:38:24;;;;;;;1.93;1.83;;;9.90;99.90;;;;;;5091155;28;20232;-82
2023/04/20 06:40:50;;;;;;;3.07;2.70;;;10.10;99.90;;;;;;5091447;28;20185;-82
2023/04/20 06:43:15;;;;;;;3.50;2.30;;;10.30;99.90;;;;;;5094560;28;20380;-81
2023/04/20 06:45:41;;;;;;;2.77;2.57;;;10.30;99.90;;;;;;5093626;28;20631;-77
2023/04/20 06:48:07;;;;;;;2.40;2.30;;;10.40;99.90;;;;;;5091703;28;20228;-81
2023/04/20 06:50:33;;;;;;;2.27;2.17;;;10.50;99.90;;;;;;5092554;28;20183;-81
2023/04/20 06:53:01;;;;;;;1.90;1.80;;;10.60;99.90;;;;;;5092455;28;20652;-81
2023/04/20 06:55:27;;;;;;;2.50;2.30;;;10.70;99.90;;;;;;5096497;28;20174;-86
2023/04/20 06:57:52;;;;;;;2.30;2.20;;;10.80;99.90;;;;;;5096443;28;20223;-79
2023/04/20 07:00:19;;;;;;;2.50;2.30;;;10.80;99.90;;;;;;5096280;28;20211;-78
2023/04/20 07:02:49;;;;;;;2.20;2.00;;;10.80;99.90;;;;;;5096505;28;20214;-75
2023/04/20 07:05:16;;;;;;;3.37;2.20;;;10.70;99.90;;;;;;5096350;28;20268;-78
2023/04/20 07:07:42;;;;;;;2.50;2.30;;;10.80;99.90;;;;;;5096327;28;20267;-80
2023/04/20 07:10:10;;;;;;;2.40;2.30;;;10.90;99.90;;;;;;5094118;28;20291;-79
2023/04/20 07:12:37;;;;;;;3.83;2.40;;;11.00;99.90;;;;;;5095459;28;20189;-81
2023/04/20 07:15:05;;;;;;;2.40;2.20;;;11.00;99.90;;;;;;5096557;28;20183;-81
2023/04/20 07:17:31;;;;;;;2.20;2.10;;;11.10;99.90;;;;;;5104524;28;20254;-80
2023/04/20 07:19:58;;;;;;;2.27;2.07;;;11.40;99.90;;;;;;5098283;28;20172;-78
2023/04/20 07:22:24;;;;;;;3.03;2.30;;;11.70;99.90;;;;;;5097047;28;20688;-83
2023/04/20 07:24:50;;;;;;;3.93;2.07;;;11.80;99.90;;;;;;5099285;28;20163;-84
2023/04/20 07:27:17;;;;;;;2.30;2.20;;;11.80;99.90;;;;;;5103627;28;20196;-80
2023/04/20 07:29:42;;;;;;;2.77;2.30;;;11.90;99.90;;;;;;5106038;28;20170;-79
2023/04/20 07:32:08;;;;;;;3.43;2.10;;;11.90;99.90;;;;;;5103112;28;20207;-80
2023/04/20 07:34:34;;;;;;;2.33;2.13;;;12.10;99.90;;;;;;5098999;28;20651;-76
2023/04/20 07:37:00;;;;;;;2.57;2.47;;;11.90;99.90;;;;;;5097633;28;20629;-76
2023/04/20 07:39:27;;;;;;;2.93;2.20;;;12.00;99.90;;;;;;5096611;28;20190;-81
2023/04/20 07:41:53;;;;;;;2.20;2.10;;;12.20;99.90;;;;;;5095544;28;20198;-81
2023/04/20 07:44:19;;;;;;;2.13;2.03;;;12.20;99.90;;;;;;5095742;28;20189;-83
2023/04/20 07:46:45;;;;;;;2.30;2.20;;;12.10;99.90;;;;;;5095664;28;20264;-84
2023/04/20 07:49:11;;;;;;;2.30;2.20;;;12.10;99.90;;;;;;5095596;28;20185;-77
2023/04/20 07:51:36;;;;;;;2.43;2.33;;;12.10;99.90;;;;;;5093928;28;20178;-76
2023/04/20 07:54:02;;;;;;;2.47;2.27;;;12.00;99.90;;;;;;5095501;28;20185;-79
2023/04/20 07:56:28;;;;;;;4.30;2.50;;;12.00;99.90;;;;;;5096583;28;20514;-81
2023/04/20 07:58:55;;;;;;;2.70;2.50;;;11.80;99.90;;;;;;5094163;28;20334;-84
2023/04/20 08:01:25;;;;;;;6.70;3.00;;;11.80;99.90;;;;;;5095779;28;20718;-82
2023/04/20 08:03:51;;;;;;;2.47;2.37;;;11.60;99.90;;;;;;5095100;28;20178;-76
2023/04/20 08:06:17;;;;;;;2.37;2.27;;;11.60;99.60;;;;;;5093867;28;20223;-75
2023/04/20 08:08:42;;;;;;;2.53;2.33;;;11.60;98.90;;;;;;5093699;28;20190;-79
2023/04/20 08:11:08;;;;;;;2.40;2.30;;;11.60;99.10;;;;;;5094924;28;20249;-76
2023/04/20 08:13:36;;;;;;;2.17;2.07;;;11.70;99.30;;;;;;5095124;28;20574;-80
2023/04/20 08:16:01;;;;;;;3.47;2.40;;;11.80;99.10;;;;;;5093368;28;20200;-76
2023/04/20 08:18:29;;;;;;;2.43;2.23;;;11.80;99.20;;;;;;5094902;28;20177;-78
2023/04/20 08:20:55;;;;;;;2.90;2.60;;;12.00;99.30;;;;;;5094781;28;20580;-76
2023/04/20 08:23:26;;;;;;;2.67;2.50;;;12.10;99.40;;;;;;5093581;28;20257;-76
2023/04/20 08:25:52;;;;;;;2.13;2.03;;;12.20;99.80;;;;;;5094782;28;20170;-77
2023/04/20 08:28:18;;;;;;;2.73;2.53;;;12.40;99.90;;;;;;5094879;28;20341;-78
2023/04/20 08:30:45;;;;;;;2.60;2.50;;;12.50;99.00;;;;;;5094692;28;20646;-82
2023/04/20 08:33:11;;;;;;;2.57;2.37;;;12.70;98.40;;;;;;5093131;28;20180;-74
2023/04/20 08:35:37;;;;;;;2.33;2.23;;;12.80;98.10;;;;;;5094511;28;20182;-75
2023/04/20 08:38:03;;;;;;;2.77;2.67;;;12.70;98.00;;;;;;5094600;28;20175;-77
2023/04/20 08:40:30;;;;;;;2.77;2.57;;;12.80;99.20;;;;;;5094663;28;20215;-76
2023/04/20 08:42:58;;;;;;;3.87;2.70;;;13.00;99.20;;;;;;5094862;28;20210;-78
2023/04/20 08:45:27;;;;;;;2.93;2.73;;;13.30;98.40;;;;;;5094228;28;20174;-75
2023/04/20 08:47:54;;;;;;;3.47;2.60;;;13.70;98.20;;;;;;5094620;28;20224;-77
2023/04/20 08:50:20;;;;;;;2.43;2.33;;;13.90;97.80;;;;;;5097830;28;20655;-75
2023/04/20 08:52:46;;;;;;;2.40;2.30;;;14.20;98.00;;;;;;5094612;28;20260;-76
2023/04/20 08:55:18;;;;;;;2.70;2.50;;;14.40;97.70;;;;;;5093993;28;20158;-77
2023/04/20 08:57:44;;;;;;;3.07;2.17;;;14.60;97.70;;;;;;5094055;28;20171;-75
2023/04/20 09:00:10;;;;;;;2.57;2.47;;;14.60;97.60;;;;;;5094947;28;20682;-77
2023/04/20 09:02:51;;;;;;;2.30;2.20;;;14.90;96.00;;;;;;5095184;28;20227;-76
2023/04/20 09:05:28;;;;;;;2.37;2.27;;;14.80;95.90;;;;;;5095686;28;20168;-77
2023/04/20 09:07:56;;;;;;;2.53;2.33;;;15.00;95.70;;;;;;5097823;28;20218;-78
2023/04/20 09:10:25;;;;;;;2.30;1.90;;;14.90;95.10;;;;;;5101032;28;20235;-77
2023/04/20 09:12:52;;;;;;;2.50;2.07;;;15.00;96.20;;;;;;5096071;28;20528;-84
2023/04/20 09:15:26;;;;;;;3.23;2.67;;;15.20;95.50;;;;;;5095273;28;20654;-84
2023/04/20 09:17:51;;;;;;;2.40;2.20;;;14.90;94.80;;;;;;5092748;28;20234;-83
2023/04/20 09:20:27;;;;;;;2.83;2.63;;;14.80;95.40;;;;;;5094139;28;20171;-79
2023/04/20 09:22:53;;;;;;;2.60;2.40;;;15.00;96.00;;;;;;5094660;28;20212;-82
2023/04/20 09:25:20;;;;;;;2.40;2.30;;;15.10;94.70;;;;;;5096695;28;20551;-78
2023/04/20 09:28:00;;;;;;;2.40;2.30;;;15.20;95.90;;;;;;5096450;28;20210;-79
2023/04/20 09:30:40;;;;;;;2.17;2.07;;;15.40;95.90;;;;;;5093433;28;20172;-76
2023/04/20 09:33:11;;;;;;;2.97;2.10;;;15.50;95.10;;;;;;5092613;28;20697;-81
2023/04/20 09:35:39;;;;;;;2.53;2.43;;;15.60;96.20;;;;;;5093776;28;20151;-78
2023/04/20 09:38:06;;;;;;;2.30;2.20;;;15.80;96.00;;;;;;5092577;28;20667;-76
2023/04/20 09:40:33;;;;;;;2.37;2.27;;;16.00;96.30;;;;;;5094667;28;20163;-76
2023/04/20 09:43:03;;;;;;;2.30;2.20;;;16.00;95.00;;;;;;5092234;28;20210;-77
2023/04/20 09:45:29;;;;;;;2.50;2.40;;;16.20;94.20;;;;;;5092018;28;20225;-78
2023/04/20 09:47:55;;;;;;;2.50;2.30;;;16.10;94.30;;;;;;5092018;28;20205;-78
2023/04/20 09:50:21;;;;;;;2.20;2.10;;;16.10;93.10;;;;;;5093335;28;20248;-76
2023/04/20 09:52:48;;;;;;;2.27;2.17;;;16.00;93.20;;;;;;5092004;28;20193;-76
2023/04/20 09:55:14;;;;;;;2.50;2.40;;;16.10;93.90;;;;;;5091401;28;20175;-77
2023/04/20 09:57:40;;;;;;;2.60;2.40;;;16.20;94.00;;;;;;5091691;28;20529;-77
2023/04/20 10:00:09;;;;;;;2.57;2.20;;;16.50;93.80;;;;;;5092977;28;20256;-78
2023/04/20 10:02:36;;;;;;;2.50;2.30;;;16.60;94.10;;;;;;5092435;28;20211;-75
2023/04/20 10:05:03;;;;;;;2.60;2.50;;;16.60;93.60;;;;;;5091990;28;20220;-76
2023/04/20 10:07:32;;;;;;;2.97;2.77;;;16.50;92.90;;;;;;5093303;28;20189;-76
2023/04/20 10:10:15;;;;;;;2.53;2.43;;;16.40;93.00;;;;;;5097258;28;20224;-81
2023/04/20 10:12:48;;;;;;;2.40;2.30;;;16.40;93.40;;;;;;5094092;28;20170;-75
2023/04/20 10:15:14;;;;;;;2.13;2.03;;;16.40;93.00;;;;;;5092827;28;20270;-76
2023/04/20 10:17:40;;;;;;;2.57;2.37;;;16.50;93.90;;;;;;5092929;28;20231;-77
2023/04/20 10:20:26;;;;;;;2.50;2.30;;;16.70;94.30;;;;;;5091364;28;20174;-81
2023/04/20 10:22:54;;;;;;;2.60;2.50;;;16.80;93.00;;;;;;5095220;28;20214;-76
2023/04/20 10:25:23;;;;;;;2.70;2.60;;;16.90;93.20;;;;;;5094706;28;20164;-76
2023/04/20 10:28:03;;;;;;;2.83;2.73;;;17.00;93.50;;;;;;5093907;28;20190;-83
2023/04/20 10:30:29;;;;;;;2.80;2.53;;;17.00;92.60;;;;;;5093835;28;20186;-83
2023/04/20 10:33:10;;;;;;;2.50;2.40;;;17.00;93.20;;;;;;5096328;28;20167;-79
2023/04/20 10:35:45;;;;;;;2.50;2.30;;;17.10;93.30;;;;;;5096056;28;20583;-82
2023/04/20 10:38:11;;;;;;;2.80;2.60;;;17.20;92.90;;;;;;5095353;28;20178;-79
2023/04/20 10:40:40;;;;;;;2.53;2.43;;;17.30;92.80;;;;;;5093722;28;20177;-84
2023/04/20 10:43:20;;;;;;;2.80;2.60;;;17.30;92.60;;;;;;5092332;28;20238;-78
2023/04/20 10:45:47;;;;;;;2.50;2.40;;;17.20;92.50;;;;;;5091865;28;20186;-75
2023/04/20 10:48:12;;;;;;;2.70;2.50;;;17.10;93.10;;;;;;5093235;28;20170;-77
2023/04/20 10:50:39;;;;;;;2.40;2.30;;;17.20;93.70;;;;;;5094700;28;20192;-77
2023/04/20 10:53:06;;;;;;;2.60;2.40;;;17.30;93.60;;;;;;5093944;28;20183;-82
2023/04/20 10:55:33;;;;;;;2.50;2.40;;;17.50;93.50;;;;;;5092699;28;20201;-78
2023/04/20 10:57:58;;;;;;;2.77;2.63;;;17.60;92.90;;;;;;5092548;28;20313;-77
2023/04/20 11:00:27;;;;;;;2.73;2.50;;;17.60;92.20;;;;;;5092939;28;20680;-86
2023/04/20 11:02:57;;;;;;;3.73;2.50;;;17.40;92.00;;;;;;5093624;28;20220;-81
2023/04/20 11:05:26;;;;;;;2.40;2.30;;;17.20;92.10;;;;;;5092653;28;20218;-84
2023/04/20 11:07:59;;;;;;;3.43;3.07;;;17.10;92.20;;;;;;5093039;28;20167;-82
2023/04/20 11:10:41;;;;;;;2.87;2.67;;;17.30;92.50;;;;;;5091441;28;20186;-78
2023/04/20 11:13:18;;;;;;;3.70;3.40;;;17.40;92.40;;;;;;5092847;28;20629;-82
2023/04/20 11:15:44;;;;;;;3.30;3.10;;;17.30;92.00;;;;;;5091180;28;20176;-84
2023/04/20 11:18:10;;;;;;;2.90;2.70;;;17.20;92.30;;;;;;5092512;28;20223;-79
2023/04/20 11:20:37;;;;;;;3.20;3.00;;;17.30;92.20;;;;;;5094752;28;20165;-83
2023/04/20 11:23:04;;;;;;;3.23;3.03;;;17.10;92.20;;;;;;5096404;28;20202;-78
2023/04/20 11:25:30;;;;;;;2.73;2.60;;;16.80;92.30;;;;;;5092825;28;20251;-82
2023/04/20 11:28:09;;;;;;;3.03;2.40;;;16.70;92.30;;;;;;5093031;28;20176;-78
2023/04/20 11:30:41;;;;;;;3.07;2.77;;;16.90;92.30;;;;;;5092632;28;20179;-77
2023/04/20 11:33:07;;;;;;;3.03;2.70;;;16.90;92.20;;;;;;5092607;28;20653;-79
2023/04/20 11:35:41;;;;;;;2.57;2.33;;;17.10;92.40;;;;;;5091816;28;20182;-79
2023/04/20 11:38:07;;;;;;;2.80;2.60;;;17.20;92.40;;;;;;5092720;28;20165;-80
2023/04/20 11:40:34;;;;;;;3.23;3.03;;;17.40;92.60;;;;;;5095885;28;20646;-83
2023/04/20 11:42:59;;;;;;;3.07;2.80;;;17.20;92.30;;;;;;5096116;28;20211;-80
2023/04/20 11:45:26;;;;;;;2.67;2.57;;;17.10;92.90;;;;;;5099744;28;20170;-80
2023/04/20 11:47:55;;;;;;;1.90;1.80;;;17.20;93.70;;;;;;5099479;28;20178;-80
2023/04/20 11:50:21;;;;;;;2.57;2.43;;;17.40;93.20;;;;;;5096965;28;20793;-81
2023/04/20 11:52:47;;;;;;;2.63;2.50;;;17.60;94.20;;;;;;5095433;28;20220;-81
2023/04/20 11:55:13;;;;;;;3.00;2.70;;;17.80;93.10;;;;;;5097585;28;20167;-77
2023/04/20 11:57:39;;;;;;;3.03;2.73;;;18.00;92.60;;;;;;5101483;28;20174;-77
2023/04/20 12:00:06;;;;;;;2.77;2.60;;;18.10;92.90;;;;;;5097494;28;20698;-81
2023/04/20 12:02:31;;;;;;;2.73;2.50;;;18.10;92.70;;;;;;5095913;28;20309;-78
2023/04/20 12:05:00;;;;;;;2.40;2.30;;;18.00;91.90;;;;;;5103354;28;20178;-76
2023/04/20 12:07:26;;;;;;;2.53;2.43;;;18.00;92.90;;;;;;5100813;28;20534;-78
2023/04/20 12:09:52;;;;;;;3.23;3.00;;;18.10;92.80;;;;;;5096139;28;20204;-77
2023/04/20 12:12:18;;;;;;;2.53;2.33;;;18.10;93.00;;;;;;5096107;28;20604;-80
2023/04/20 12:14:44;;;;;;;2.90;2.60;;;18.10;93.60;;;;;;5095804;28;20208;-81
2023/04/20 12:17:10;;;;;;;2.63;2.43;;;18.20;93.00;;;;;;5095671;28;20179;-78
2023/04/20 12:19:36;;;;;;;3.00;2.80;;;18.20;92.90;;;;;;5095958;28;20165;-80
2023/04/20 12:22:02;;;;;;;2.57;2.47;;;18.30;92.00;;;;;;5095195;28;20214;-76
2023/04/20 12:24:28;;;;;;;2.70;2.60;;;18.10;92.10;;;;;;5095289;28;20527;-80
2023/04/20 12:26:53;;;;;;;2.33;2.23;;;17.80;92.60;;;;;;5094996;28;20219;-76
2023/04/20 12:29:19;;;;;;;2.70;2.60;;;17.70;92.30;;;;;;5098422;28;20590;-75
2023/04/20 12:31:45;;;;;;;2.90;2.70;;;17.70;92.70;;;;;;5095732;28;20657;-81
2023/04/20 12:34:11;;;;;;;3.13;2.90;;;17.60;92.10;;;;;;5094565;28;20215;-78
2023/04/20 12:36:37;;;;;;;2.63;2.53;;;17.30;92.10;;;;;;5094992;28;20178;-80
2023/04/20 12:39:03;;;;;;;2.50;2.40;;;17.00;92.90;;;;;;5093765;28;20713;-76
2023/04/20 12:41:29;;;;;;;2.70;2.47;;;16.90;93.90;;;;;;5095298;28;20176;-76
2023/04/20 12:43:55;;;;;;;2.63;2.47;;;16.70;94.90;;;;;;5100797;28;20182;-77
2023/04/20 12:46:20;;;;;;;2.97;2.77;;;16.80;94.90;;;;;;5105793;28;20224;-78
2023/04/20 12:48:48;;;;;;;2.70;2.60;;;16.80;93.80;;;;;;5099528;28;20650;-76
2023/04/20 12:51:14;;;;;;;6.90;2.87;;;16.90;93.60;;;;;;5093989;28;20170;-76